x

Nantucket Sound (44020) Wave Buoy

10:50am - Sat 23rd Sep 2017 All times are EDT. -4 hours from GMT.

  • Sig Wave height 2.3ft
  • Swell Direction
  • Peak Period 4s
  • Average Period 4s
  • Wind
    16mph, 18mph gusts
  • Sea Temp 61°f
  • 空気 Temp 62°f
  • Sea Pressure 1014.2mb
  • Nantucket Sound
  • Nantucket Sound

More Historic Weather Station data

Upgrade to MSW Pro to gain access to the past 30 days of data for over 8000 Wavebouys and Weather Stations around the globe.

Join

Comparision Forecast

View Surf forecast
   
Sat 09/23 10:50am 2.5ft 4s 4s 16 18 mph 1014.2mb 61f 62f
9:50am 2.5ft 4s 4s 18 22 mph 1013.9mb 61f 61f
8:50am 3ft 4s 4s 20 25 mph 1013.5mb 61f 61f
7:50am 3.5ft 4s 4s 20 25 mph 1012.8mb 61f 62f
6:50am 3.5ft 4s 4s 22 29 mph 1012.2mb 61f 62f
5:50am 3.5ft 4s 4s 25 29 mph 1011.7mb 61f 62f
4:50am 3.5ft 4s 4s 25 29 mph 1011.2mb 61f 62f
3:50am 3.5ft 4s 4s 22 27 mph 1011mb 61f 62f
2:50am 3.5ft 4s 4s 25 27 mph 1010.7mb 62f 62f
1:50am 4ft 4s 4s 25 27 mph 1010.5mb 61f 62f
12:50am 4ft 5s 4s 25 29 mph 1010.9mb 61f 62f
Fri 09/22 11:50pm 4ft 5s 4s 25 29 mph 1010.5mb 61f 62f
10:50pm 4ft 5s 4s 27 34 mph 1010.5mb 61f 61f
9:50pm 4.5ft 5s 4s 27 31 mph 1010.4mb 61f 62f
8:50pm 4.5ft 5s 4s 31 38 mph 1009.8mb 61f 62f
7:50pm 4.5ft 5s 4s 29 34 mph 1009.6mb 61f 62f
6:50pm 5ft 5s 4s 29 36 mph 1009.2mb 61f 61f
5:50pm 5ft 5s 4s 31 36 mph 1009.1mb 61f 61f
4:50pm 5.5ft 5s 4s 34 45 mph 1008.6mb 62f 61f
3:50pm 5.5ft 5s 4s 31 38 mph 1008.6mb 62f 61f
2:50pm 5ft 5s 4s 31 38 mph 1008.6mb 61f 61f
1:50pm 5ft 5s 4s 31 38 mph 1008.8mb 61f 61f
12:50pm 4.5ft 5s 4s 34 40 mph 1008.8mb 60f 61f
11:50am 5ft 5s 5s 29 38 mph 1009.2mb 60f 61f
10:50am 5ft 5s 5s 31 38 mph 1009.1mb 61f 61f
9:50am 5ft 5s 5s 34 40 mph 1008.9mb 61f 61f
8:50am 5.5ft 5s  -  36 43 mph 1008.4mb 61f 61f
7:50am 6ft 5s 5s 34 43 mph 1008.3mb 61f 60f
6:50am 6ft 5s 5s 36 43 mph 1008.1mb 61f 60f
5:50am 6ft 5s 5s 36 45 mph 1007.7mb 61f 60f
4:50am 6.5ft 5s 5s 36 45 mph 1007.4mb 61f 61f
3:50am 6.5ft 5s 5s 36 45 mph 1007.6mb 61f 61f
2:50am 6.5ft 5s 5s 36 47 mph 1007.9mb 62f 61f
1:50am 6ft 5s 5s 36 45 mph 1008.2mb 61f 61f
12:50am 6ft 5s 5s 36 43 mph 1008.5mb 61f 61f
Thu 09/21 11:50pm 7ft 6s 5s 36 45 mph 1008.8mb 60f 60f
10:50pm 6.5ft 6s 5s 38 47 mph 1008.7mb 60f 60f
9:50pm 6.5ft 6s 5s 40 49 mph 1008.4mb 61f 61f
8:50pm 6ft 6s 5s 38 49 mph 1008.8mb 61f 62f
7:50pm 6ft 5s 5s 38 49 mph 1008.8mb 61f 63f
6:50pm 6ft 5s 5s 36 47 mph 1008.9mb 61f 62f
5:50pm 6ft 5s 5s 36 47 mph 1009.1mb 61f 62f
4:50pm 6ft 5s 5s 36 45 mph 1009.1mb 61f 60f
3:50pm 7ft 5s 5s 36 45 mph 1008.9mb 62f 60f
2:50pm 6ft 5s 5s 34 40 mph 1009.1mb 61f 62f
1:50pm 6ft 5s 4s 34 40 mph 1009mb 61f 61f
12:50pm 6ft 5s 5s 36 43 mph 1009mb 62f 61f
11:50am 6ft 5s 5s 34 40 mph 1009.3mb 63f 62f
10:50am 5.5ft 5s 5s 34 40 mph 1009.1mb 61f 62f
9:50am 6ft 5s 5s 34 40 mph 1008.8mb 61f 64f
8:50am 5.5ft 5s 5s 34 43 mph 1008.1mb 60f 64f
7:50am 5ft 5s 5s 31 40 mph 1007.3mb 60f 64f
6:50am 5ft 5s 4s 34 38 mph 1006.8mb 60f 65f
5:50am 5ft 5s 4s 31 40 mph 1006.2mb 60f 65f
4:50am 6ft 5s 4s 31 38 mph 1005.7mb 60f 64f
3:50am 5ft 5s 4s 29 36 mph 1005.3mb 60f 64f
2:50am 5ft 5s 4s 31 38 mph 1004.9mb 61f 65f
1:50am 5.5ft 5s 4s 29 36 mph 1005.2mb 65f 65f
12:50am 5ft 5s 4s 29 40 mph 1005.2mb 67f 66f
Wed 09/20 11:50pm 5ft 5s 4s 31 36 mph 1005mb 67f 67f
10:50pm 5ft 5s 5s 29 36 mph 1005.5mb 67f 68f
9:50pm 5ft 5s 5s 34 43 mph 1004.9mb 66f 68f
8:50pm 4.5ft 5s 4s 27 34 mph 1005.1mb 65f 67f
7:50pm 4.5ft 5s 4s 29 36 mph 1005.2mb 62f 66f
6:50pm 4.5ft 5s 4s 29 34 mph 1005mb 61f 65f
5:50pm 4.5ft 5s 4s 31 38 mph 1004.6mb 61f 65f
4:50pm 4.5ft 5s 4s 29 34 mph 1004.3mb 61f 65f
3:50pm 4.5ft 4s 4s 29 34 mph 1004.3mb 62f 65f
2:50pm 4.5ft 4s 4s 29 36 mph 1004.6mb 64f 65f
1:50pm 4.5ft 4s 4s 27 34 mph 1004.6mb 67f 66f
12:50pm 4.5ft 4s 4s 29 34 mph 1004.9mb 68f 66f
11:50am 4ft 5s 4s 29 36 mph 1005.3mb 68f 66f
10:50am 4ft 5s 4s 29 34 mph 1005.9mb 68f 66f
9:50am 3.5ft 5s 4s 29 36 mph 1006.5mb 68f 66f
8:50am 3.5ft 4s 4s 25 31 mph 1006.7mb 67f 66f
7:50am 3.5ft 5s 4s 25 31 mph 1006.6mb 66f 65f
6:50am 3.5ft 4s 4s 22 27 mph 1006.9mb 65f 64f
5:50am 3.5ft 4s 4s 22 27 mph 1006.9mb 63f 64f
4:50am 3ft 4s 4s 25 27 mph 1006.9mb 63f 64f
3:50am 3ft 4s 4s 20 25 mph 1007.6mb 64f 64f
2:50am 3.5ft 4s 4s 20 25 mph 1008.6mb 65f 64f
1:50am 3.5ft 4s 4s 25 29 mph 1008.8mb 67f 65f
12:50am 3.5ft 4s 4s 22 27 mph 1009.4mb 68f 65f
Tue 09/19 11:50pm 4ft 4s 4s 25 29 mph 1009.8mb 68f 66f
10:50pm 3.5ft 4s 4s 25 29 mph 1010.6mb 68f 67f
9:50pm 3.5ft 4s 4s 25 29 mph 1010.7mb 68f 67f
8:50pm 3.5ft 4s  -  25 29 mph 1011.2mb 68f 66f
7:50pm 3ft 4s 4s 25 29 mph 1011.2mb 67f 66f
6:50pm 2.5ft 4s 4s 25 29 mph 1011.5mb 66f 65f
5:50pm 2.5ft 4s 4s 20 22 mph 1011.9mb 65f 65f
4:50pm 2.5ft 4s 4s 20 25 mph 1012.5mb 65f 65f